Time;durP1;ratioP1;P1;durP2;ratioP2;P2;SDS_P1;SDS_P2;PMS_P1;PMS_P2;Temp;Humidity;BMP_temperature;BMP_pressure;BME280_temperature;BME280_humidity;BME280_pressure;Samples;Min_cycle;Max_cycle;Signal;HPM_P1;HPM_P2
2021/03/05 00:00:32;;;;;;;21.52;8.38;;;;;;;8.08;54.56;101560.97;4971738;28;98717;-79
2021/03/05 00:02:58;;;;;;;16.25;6.75;;;;;;;7.38;55.87;101567.00;4976886;28;96798;-78
2021/03/05 00:05:24;;;;;;;;;;;;;;;6.78;57.30;101569.25;4994346;28;98188;-79
2021/03/05 00:07:50;;;;;;;15.88;7.13;;;;;;;6.66;58.09;101587.72;4984877;28;98025;-79
2021/03/05 00:10:17;;;;;;;;;;;;;;;6.77;58.22;101580.63;4993513;28;97810;-79
2021/03/05 00:12:43;;;;;;;18.50;6.97;;;;;;;7.04;57.57;101585.69;4981700;28;96731;-79
2021/03/05 00:15:10;;;;;;;;;;;;;;;6.83;58.05;101591.09;4966935;28;98613;-79
2021/03/05 00:17:45;;;;;;;14.85;6.82;;;;;;;7.00;57.98;101588.34;4978759;28;101932;-79
2021/03/05 00:20:15;;;;;;;22.77;8.27;;;;;;;7.08;57.45;101587.44;4979450;28;96753;-78
2021/03/05 00:22:42;;;;;;;19.42;7.82;;;;;;;6.68;58.75;101589.47;4974875;28;96812;-78
2021/03/05 00:25:09;;;;;;;19.83;8.30;;;;;;;6.86;57.66;101605.97;4976127;28;98969;-80
2021/03/05 00:27:35;;;;;;;24.90;8.63;;;;;;;6.42;58.73;101600.97;4985069;28;99290;-80
2021/03/05 00:30:01;;;;;;;;;;;;;;;6.41;59.58;101607.97;4972348;28;96781;-79
2021/03/05 00:32:27;;;;;;;24.92;9.48;;;;;;;6.17;60.61;101610.72;4966744;28;97157;-79
2021/03/05 00:34:53;;;;;;;23.10;9.63;;;;;;;5.79;61.16;101609.03;4974063;28;98816;-79
2021/03/05 00:37:20;;;;;;;22.08;11.27;;;;;;;5.56;62.01;101613.47;4974085;28;97980;-78
2021/03/05 00:39:47;;;;;;;33.45;10.77;;;;;;;6.15;60.98;101618.59;4972696;28;97610;-80
2021/03/05 00:42:13;;;;;;;25.55;10.02;;;;;;;6.00;61.08;101626.50;4964266;28;96614;-79
2021/03/05 00:44:38;;;;;;;;;;;;;;;6.04;59.98;101617.72;4961295;28;99289;-78
2021/03/05 00:47:04;;;;;;;25.50;9.20;;;;;;;6.25;59.95;101628.16;4971597;28;98001;-78
2021/03/05 00:49:30;;;;;;;;;;;;;;;6.00;61.04;101624.75;4969273;28;98680;-78
2021/03/05 00:51:57;;;;;;;26.33;10.50;;;;;;;6.48;59.71;101621.97;4972465;28;97168;-77
2021/03/05 00:54:23;;;;;;;25.88;9.20;;;;;;;6.14;59.96;101631.72;4969324;28;99223;-79
2021/03/05 00:56:49;;;;;;;;;;;;;;;6.63;58.82;101632.41;4970511;28;98813;-78
2021/03/05 00:59:15;;;;;;;32.03;10.10;;;;;;;6.74;57.98;101628.81;4967431;28;98749;-78
2021/03/05 01:01:41;;;;;;;23.70;9.20;;;;;;;7.10;56.58;101626.81;4968860;28;97102;-79
2021/03/05 01:04:07;;;;;;;;;;;;;;;7.66;54.72;101622.84;4968632;28;99215;-80
2021/03/05 01:06:33;;;;;;;27.88;9.65;;;;;;;7.27;55.97;101631.97;4971090;28;98874;-78
2021/03/05 01:08:59;;;;;;;26.55;9.98;;;;;;;6.58;57.25;101628.91;4975198;28;96743;-79
2021/03/05 01:11:25;;;;;;;;;;;;;;;6.08;59.36;101636.97;4971726;28;98751;-79
2021/03/05 01:13:52;;;;;;;31.80;8.75;;;;;;;6.86;57.15;101634.88;4967552;28;102176;-79
2021/03/05 01:16:18;;;;;;;34.35;10.75;;;;;;;6.68;57.46;101641.13;4960764;28;97757;-79
2021/03/05 01:18:43;;;;;;;;;;;;;;;6.57;58.00;101635.91;4976269;28;96794;-79
2021/03/05 01:21:09;;;;;;;30.40;8.80;;;;;;;6.14;58.47;101636.97;4965430;28;97122;-79
2021/03/05 01:23:35;;;;;;;;;;;;;;;6.04;58.93;101637.88;4970653;28;97891;-79
2021/03/05 01:26:01;;;;;;;32.20;9.27;;;;;;;5.92;59.26;101649.25;4981612;28;99194;-79
2021/03/05 01:28:27;;;;;;;;;;;;;;;6.14;58.28;101648.34;4971443;28;97240;-80
2021/03/05 01:30:53;;;;;;;32.33;8.40;;;;;;;6.19;58.25;101653.56;4974079;28;97207;-79
2021/03/05 01:33:19;;;;;;;24.60;8.98;;;;;;;6.12;58.06;101657.06;4965451;28;99268;-79
2021/03/05 01:35:45;;;;;;;;;;;;;;;5.91;58.77;101655.38;4974339;28;99002;-80
2021/03/05 01:38:16;;;;;;;32.25;9.60;;;;;;;6.38;57.53;101655.25;4985943;28;96718;-78
2021/03/05 01:40:45;;;;;;;30.08;9.10;;;;;;;6.04;57.78;101662.34;4973110;28;98755;-78
2021/03/05 01:43:13;;;;;;;34.30;9.70;;;;;;;5.55;59.66;101661.53;4974813;28;100832;-79
2021/03/05 01:45:40;;;;;;;44.10;10.13;;;;;;;5.85;58.03;101666.72;4976278;28;97648;-79
2021/03/05 01:48:11;;;;;;;37.53;10.68;;;;;;;6.21;56.95;101665.81;4975149;28;96849;-79
2021/03/05 01:50:47;;;;;;;36.95;9.50;;;;;;;6.75;55.93;101664.72;4968285;28;97408;-79
2021/03/05 01:53:13;;;;;;;43.47;10.95;;;;;;;6.62;56.21;101678.78;4971623;28;99145;-80
2021/03/05 01:55:39;;;;;;;43.38;10.95;;;;;;;6.65;55.70;101660.38;4968622;28;99215;-79
2021/03/05 01:58:05;;;;;;;;;;;;;;;5.53;58.84;101665.88;4962152;28;96885;-79
2021/03/05 02:00:35;;;;;;;48.65;11.45;;;;;;;5.62;59.03;101676.38;4972492;28;97726;-79
2021/03/05 02:03:00;;;;;;;43.10;12.27;;;;;;;5.42;59.48;101680.75;4971811;28;100292;-79
2021/03/05 02:05:27;;;;;;;;;;;;;;;5.05;60.69;101670.25;4968065;28;99085;-80
2021/03/05 02:07:53;;;;;;;50.17;11.90;;;;;;;5.12;60.14;101681.59;4974996;28;96924;-79
2021/03/05 02:10:19;;;;;;;;;;;;;;;5.84;58.21;101680.72;4974642;28;96802;-79
2021/03/05 02:12:45;;;;;;;40.17;11.93;;;;;;;6.21;56.27;101686.81;4972133;28;97747;-79
2021/03/05 02:15:12;;;;;;;48.53;11.02;;;;;;;5.48;58.51;101686.88;4973903;28;98204;-79
2021/03/05 02:17:45;;;;;;;57.80;12.32;;;;;;;5.77;58.16;101693.84;4974646;28;97617;-80
2021/03/05 02:20:19;;;;;;;50.40;13.43;;;;;;;5.70;58.35;101690.38;4967400;28;97540;-79
2021/03/05 02:23:36;;;;;;;48.28;13.50;;;;;;;5.24;59.01;101691.22;4973829;28;99289;-79
2021/03/05 02:26:24;;;;;;;51.75;12.90;;;;;;;5.19;59.58;101699.94;4969856;28;98946;-78
2021/03/05 02:29:04;;;;;;;51.40;12.70;;;;;;;5.56;58.23;101694.72;4970255;28;97858;-79
2021/03/05 02:31:39;;;;;;;49.00;12.75;;;;;;;5.29;58.77;101703.44;4967496;28;98414;-80
2021/03/05 02:34:08;;;;;;;53.28;13.07;;;;;;;5.68;58.04;101705.22;4969837;28;97872;-80
2021/03/05 02:36:40;;;;;;;48.42;13.15;;;;;;;5.76;57.63;101713.97;4969795;28;98842;-79
2021/03/05 02:39:12;;;;;;;42.65;11.35;;;;;;;5.68;57.59;101714.81;4971416;28;97855;-80
2021/03/05 02:41:41;;;;;;;46.03;11.90;;;;;;;6.00;56.84;101716.59;4967631;28;97721;-79
2021/03/05 02:44:12;;;;;;;39.47;10.85;;;;;;;6.26;55.33;101713.03;4968544;28;99238;-79
2021/03/05 02:46:41;;;;;;;42.33;11.95;;;;;;;6.15;56.08;101728.81;4967700;28;98906;-78
2021/03/05 02:49:10;;;;;;;44.40;11.27;;;;;;;5.30;58.40;101727.91;4968582;28;97010;-79
2021/03/05 02:51:37;;;;;;;40.78;12.15;;;;;;;5.51;58.38;101731.41;4967749;28;97628;-79
2021/03/05 02:54:06;;;;;;;43.97;10.60;;;;;;;5.55;58.00;101745.41;4971549;28;97709;-79
2021/03/05 02:56:33;;;;;;;39.78;11.02;;;;;;;5.61;57.35;101734.94;4966510;28;98906;-79
2021/03/05 02:59:01;;;;;;;43.85;10.48;;;;;;;5.46;58.22;101751.50;4968464;28;97121;-78
2021/03/05 03:01:27;;;;;;;37.03;10.05;;;;;;;4.70;60.31;101750.44;4969428;28;97512;-80
2021/03/05 03:03:56;;;;;;;35.88;8.68;;;;;;;4.49;61.13;101742.47;4967139;28;98819;-79
2021/03/05 03:06:23;;;;;;;36.78;9.70;;;;;;;4.77;61.09;101747.84;4970548;28;101395;-79
2021/03/05 03:08:51;;;;;;;29.38;9.32;;;;;;;4.73;61.35;101753.91;4968468;28;97143;-79
2021/03/05 03:11:18;;;;;;;35.30;9.57;;;;;;;4.96;60.23;101754.03;4966626;28;98836;-79
2021/03/05 03:13:47;;;;;;;30.20;8.80;;;;;;;5.37;59.26;101755.88;4966739;28;98904;-79
2021/03/05 03:16:16;;;;;;;31.30;9.00;;;;;;;5.35;59.54;101760.25;4968304;28;98796;-80
2021/03/05 03:18:42;;;;;;;28.35;9.20;;;;;;;5.35;59.04;101757.63;4963601;28;96938;-79
2021/03/05 03:21:09;;;;;;;29.45;9.55;;;;;;;5.33;58.60;101765.47;4965384;28;98357;-79
2021/03/05 03:23:35;;;;;;;28.20;9.18;;;;;;;4.99;59.50;101769.72;4974737;28;99105;-79
2021/03/05 03:26:02;;;;;;;30.58;9.23;;;;;;;4.73;59.91;101772.25;4965727;28;98925;-78
2021/03/05 03:28:28;;;;;;;33.38;10.27;;;;;;;4.92;59.61;101768.00;4972012;28;96775;-79
2021/03/05 03:30:54;;;;;;;;;;;;;;;4.98;59.40;101775.88;4971516;28;96798;-79
2021/03/05 03:33:21;;;;;;;26.27;7.93;;;;;;;4.72;59.83;101774.88;4971671;28;98972;-79
2021/03/05 03:35:47;;;;;;;30.63;9.15;;;;;;;4.97;58.81;101791.56;4964786;28;98851;-79
2021/03/05 03:38:15;;;;;;;27.77;7.10;;;;;;;4.56;59.67;101793.97;4975503;28;96764;-79
2021/03/05 03:40:43;;;;;;;28.13;7.68;;;;;;;4.41;60.67;101797.38;4970713;28;98434;-79
2021/03/05 03:43:08;;;;;;;31.00;8.75;;;;;;;4.89;58.51;101794.16;4971513;28;98938;-80
2021/03/05 03:45:36;;;;;;;;;;;;;;;4.84;58.15;101802.88;4973280;28;99249;-79
2021/03/05 03:48:03;;;;;;;20.90;7.15;;;;;;;4.45;59.54;101806.13;4968514;28;97869;-80
2021/03/05 03:50:32;;;;;;;24.33;7.35;;;;;;;4.77;58.83;101804.56;4974590;28;96888;-80
2021/03/05 03:53:02;;;;;;;21.98;6.80;;;;;;;4.52;59.77;101815.78;4974236;28;98536;-80
2021/03/05 03:55:29;;;;;;;25.95;7.28;;;;;;;4.73;58.64;101818.50;4974149;28;98938;-80
2021/03/05 03:57:57;;;;;;;18.92;6.53;;;;;;;5.24;57.55;101810.00;4967647;28;98745;-79
2021/03/05 04:00:24;;;;;;;25.77;7.63;;;;;;;5.30;56.56;101819.63;4971015;28;98762;-79
2021/03/05 04:02:52;;;;;;;23.52;6.32;;;;;;;4.85;57.76;101826.44;4969862;28;99083;-79
2021/03/05 04:05:21;;;;;;;20.23;5.90;;;;;;;4.71;58.39;101825.50;4972931;28;98031;-79
2021/03/05 04:07:49;;;;;;;19.25;6.03;;;;;;;5.01;57.53;101827.38;4973502;28;97266;-79
2021/03/05 04:10:16;;;;;;;17.98;6.07;;;;;;;5.04;57.73;101830.03;4971944;28;97688;-79
2021/03/05 04:12:44;;;;;;;16.35;5.82;;;;;;;5.37;56.54;101826.66;4972364;28;97924;-79
2021/03/05 04:15:11;;;;;;;19.45;5.93;;;;;;;5.71;55.39;101820.59;4983107;28;98071;-79
2021/03/05 04:17:38;;;;;;;16.45;5.82;;;;;;;5.30;55.87;101836.25;4989076;28;96498;-80
2021/03/05 04:20:05;;;;;;;20.48;6.60;;;;;;;5.26;56.10;101831.84;4978534;28;97160;-79
2021/03/05 04:22:33;;;;;;;19.48;6.50;;;;;;;5.05;57.09;101840.53;4967285;28;97625;-79
2021/03/05 04:24:59;;;;;;;18.98;6.63;;;;;;;5.21;56.50;101841.44;4971365;28;99302;-79
2021/03/05 04:27:25;;;;;;;14.05;5.38;;;;;;;4.99;57.13;101850.94;4966640;28;96923;-80
2021/03/05 04:29:52;;;;;;;18.77;6.50;;;;;;;5.16;56.42;101851.03;4974058;28;96843;-79
2021/03/05 04:32:18;;;;;;;24.75;6.25;;;;;;;5.37;56.02;101856.38;4963702;28;98909;-80
2021/03/05 04:34:44;;;;;;;18.55;6.05;;;;;;;5.73;54.92;101860.81;4973580;28;98991;-79
2021/03/05 04:37:10;;;;;;;;;;;;;;;5.17;55.65;101853.66;4971386;28;96853;-80
2021/03/05 04:39:36;;;;;;;21.77;5.95;;;;;;;4.78;57.68;101870.06;4971237;28;96790;-80
2021/03/05 04:42:02;;;;;;;22.48;6.45;;;;;;;5.16;56.73;101867.63;4987011;28;97567;-79
2021/03/05 04:44:28;;;;;;;19.98;5.90;;;;;;;5.09;56.28;101871.09;4993311;28;97686;-79
2021/03/05 04:46:57;;;;;;;;;;;;;;;4.87;57.49;101890.16;4987469;28;96757;-80
2021/03/05 04:49:23;;;;;;;19.88;6.00;;;;;;;5.08;57.02;101877.19;4983561;28;96886;-78
2021/03/05 04:51:49;;;;;;;16.90;5.85;;;;;;;5.48;55.56;101874.72;4989165;28;97797;-77
2021/03/05 04:54:15;;;;;;;;;;;;;;;5.18;57.00;101885.97;4975621;28;96838;-79
2021/03/05 04:56:40;;;;;;;16.38;6.45;;;;;;;5.30;56.30;101890.41;4979589;28;97091;-79
2021/03/05 04:59:06;;;;;;;;;;;;;;;4.86;57.38;101898.03;4985351;28;96689;-79
2021/03/05 05:01:32;;;;;;;25.27;8.75;;;;;;;4.29;58.91;101910.69;4984463;28;97712;-80
2021/03/05 05:03:59;;;;;;;20.75;9.00;;;;;;;4.09;60.38;101909.63;4989471;28;98520;-80
2021/03/05 05:06:25;;;;;;;22.27;9.48;;;;;;;4.50;59.18;101914.34;4981482;28;96880;-79
2021/03/05 05:08:50;;;;;;;;;;;;;;;4.84;57.85;101905.88;4976779;28;97843;-80
2021/03/05 05:11:16;;;;;;;23.83;8.80;;;;;;;5.15;56.78;101912.16;4966466;28;98924;-79
2021/03/05 05:13:42;;;;;;;;;;;;;;;5.20;56.23;101923.53;4972353;28;96869;-79
2021/03/05 05:16:08;;;;;;;14.30;5.90;;;;;;;4.75;57.02;101922.41;4974816;28;96794;-79
2021/03/05 05:18:34;;;;;;;14.30;5.60;;;;;;;4.44;57.80;101925.66;4966351;28;98785;-79
2021/03/05 05:21:03;;;;;;;10.95;4.78;;;;;;;4.55;58.22;101925.72;4970155;28;101560;-78
2021/03/05 05:23:29;;;;;;;11.63;5.70;;;;;;;4.67;58.08;101928.44;4971785;28;97768;-78
2021/03/05 05:25:55;;;;;;;12.50;6.47;;;;;;;5.00;56.96;101931.28;4963511;28;97105;-79
2021/03/05 05:28:21;;;;;;;;;;;;;;;4.23;58.69;101926.34;4971694;28;97433;-79
2021/03/05 05:30:47;;;;;;;11.65;5.18;;;;;;;4.83;57.66;101925.06;4972009;28;98937;-80
2021/03/05 05:33:12;;;;;;;;;;;;;;;5.13;56.54;101924.38;4970016;28;98970;-79
2021/03/05 05:35:38;;;;;;;13.13;5.07;;;;;;;4.99;56.36;101928.69;4973908;28;96931;-78
2021/03/05 05:38:05;;;;;;;;;;;;;;;5.20;55.91;101934.88;4974864;28;97806;-78
2021/03/05 05:40:31;;;;;;;10.15;4.07;;;;;;;4.99;56.16;101940.00;4973566;28;99414;-79
2021/03/05 05:42:57;;;;;;;9.30;4.60;;;;;;;5.38;55.22;101941.13;4974113;28;98911;-78
2021/03/05 05:45:23;;;;;;;;;;;;;;;5.36;54.63;101942.84;4971197;28;96837;-79
2021/03/05 05:47:50;;;;;;;11.68;4.25;;;;;;;5.39;54.58;101942.84;4981203;28;96852;-79
2021/03/05 05:50:15;;;;;;;11.93;4.22;;;;;;;5.39;54.88;101953.31;4974949;28;99294;-79
2021/03/05 05:52:42;;;;;;;;;;;;;;;5.51;54.58;101948.16;4974318;28;98936;-78
2021/03/05 05:55:10;;;;;;;10.65;4.32;;;;;;;5.70;54.15;101959.59;4970948;28;96885;-78
2021/03/05 05:57:37;;;;;;;11.10;4.95;;;;;;;5.41;54.79;101956.84;4973661;28;97131;-79
2021/03/05 06:00:08;;;;;;;15.70;4.90;;;;;;;5.04;55.81;101954.03;4966503;28;98953;-79
2021/03/05 06:02:35;;;;;;;16.10;5.47;;;;;;;4.92;55.77;101956.56;4968078;28;98993;-79
2021/03/05 06:05:01;;;;;;;12.57;4.53;;;;;;;5.54;54.18;101963.91;4974764;28;97527;-79
2021/03/05 06:07:27;;;;;;;;;;;;;;;5.55;54.07;101971.78;4959473;28;97100;-79
2021/03/05 06:09:53;;;;;;;8.95;4.13;;;;;;;5.38;55.00;101969.94;4968936;28;98933;-80
2021/03/05 06:12:20;;;;;;;;;;;;;;;5.42;54.79;101974.31;4967376;28;97613;-79
2021/03/05 06:14:47;;;;;;;15.98;5.00;;;;;;;6.25;52.61;101973.75;4966523;28;98840;-79
2021/03/05 06:17:13;;;;;;;11.68;3.92;;;;;;;5.81;53.57;101978.88;4971319;28;96958;-79
2021/03/05 06:19:40;;;;;;;11.48;4.63;;;;;;;6.12;52.71;101977.22;4964655;28;97687;-80
2021/03/05 06:22:22;;;;;;;16.65;4.68;;;;;;;6.17;52.30;101973.72;4970324;28;98834;-81
2021/03/05 06:24:48;;;;;;;8.00;4.40;;;;;;;5.46;54.15;101981.31;4967079;28;98379;-80
2021/03/05 06:27:16;;;;;;;11.45;4.60;;;;;;;5.06;55.30;101990.69;4970669;28;97187;-80
2021/03/05 06:29:44;;;;;;;12.73;4.93;;;;;;;4.38;57.87;101996.25;4965921;28;97918;-80
2021/03/05 06:32:12;;;;;;;13.48;5.50;;;;;;;4.36;58.87;102009.31;4966773;28;99550;-81
2021/03/05 06:34:48;;;;;;;16.70;7.07;;;;;;;4.56;58.76;102008.63;4973950;28;96761;-81
2021/03/05 06:37:15;;;;;;;13.15;6.13;;;;;;;5.04;56.54;102006.44;4965420;28;97661;-80
2021/03/05 06:39:41;;;;;;;17.77;6.13;;;;;;;5.34;55.74;102007.47;4971942;28;98884;-81
2021/03/05 06:42:10;;;;;;;20.63;5.70;;;;;;;5.38;55.72;102014.50;4969682;28;98892;-81
2021/03/05 06:44:38;;;;;;;15.95;5.35;;;;;;;5.13;57.08;102018.69;4972387;28;96933;-80
2021/03/05 06:47:09;;;;;;;19.08;6.57;;;;;;;5.34;56.02;102028.44;4968325;28;98769;-80
2021/03/05 06:49:35;;;;;;;19.15;6.47;;;;;;;5.23;56.55;102025.75;4973974;28;99017;-80
2021/03/05 06:52:00;;;;;;;;;;;;;;;5.85;54.56;102026.09;4971636;28;98954;-79
2021/03/05 06:54:30;;;;;;;21.85;6.82;;;;;;;6.18;53.90;102024.47;4971129;28;96979;-80
2021/03/05 06:56:56;;;;;;;21.55;7.95;;;;;;;6.28;53.52;102034.16;4966774;28;97804;-80
2021/03/05 06:59:24;;;;;;;20.35;7.65;;;;;;;6.58;52.59;102033.31;4969674;28;99023;-81
2021/03/05 07:01:52;;;;;;;19.60;7.43;;;;;;;6.11;53.47;102033.22;4973923;28;98909;-79
2021/03/05 07:04:21;;;;;;;17.30;6.90;;;;;;;5.94;54.29;102046.28;4970927;28;97246;-80
2021/03/05 07:06:55;;;;;;;17.58;6.00;;;;;;;5.58;55.51;102047.81;4965575;28;97271;-78
2021/03/05 07:09:23;;;;;;;23.85;7.13;;;;;;;5.19;57.18;102058.03;4972383;28;99164;-79
2021/03/05 07:11:50;;;;;;;19.27;7.10;;;;;;;5.44;55.83;102059.09;4976706;28;98731;-79
2021/03/05 07:14:16;;;;;;;18.15;6.97;;;;;;;5.40;56.18;102059.94;4972974;28;97051;-79
2021/03/05 07:16:43;;;;;;;;;;;;;;;4.93;57.61;102068.31;4972705;28;97545;-78
2021/03/05 07:19:11;;;;;;;16.15;7.05;;;;;;;4.57;59.52;102068.00;4972556;28;99221;-79
2021/03/05 07:21:43;;;;;;;15.48;6.70;;;;;;;5.48;56.62;102059.13;4967591;28;98821;-79
2021/03/05 07:24:12;;;;;;;12.05;5.75;;;;;;;5.50;55.97;102072.25;4966583;28;97525;-78
2021/03/05 07:26:53;;;;;;;17.75;7.35;;;;;;;5.06;57.21;102083.28;4968523;28;96890;-78
2021/03/05 07:29:21;;;;;;;9.30;6.05;;;;;;;5.88;55.61;102077.72;4974681;28;98656;-78
2021/03/05 07:31:56;;;;;;;9.88;6.18;;;;;;;5.71;55.91;102077.59;4987413;28;97766;-79
2021/03/05 07:34:22;;;;;;;12.05;6.63;;;;;;;6.25;53.69;102082.25;4988803;28;97466;-80
2021/03/05 07:36:51;;;;;;;14.38;5.40;;;;;;;5.70;55.52;102078.50;4978821;28;96799;-79
2021/03/05 07:39:23;;;;;;;10.93;6.00;;;;;;;6.05;54.49;102081.31;4976413;28;98898;-80
2021/03/05 07:41:51;;;;;;;9.18;5.40;;;;;;;6.09;54.24;102080.47;4978209;28;99445;-81
2021/03/05 07:44:18;;;;;;;21.40;6.25;;;;;;;6.10;54.06;102086.59;4970490;28;97239;-80
2021/03/05 07:46:45;;;;;;;11.45;5.22;;;;;;;6.57;52.87;102087.59;4972625;28;97619;-81
2021/03/05 07:49:12;;;;;;;17.83;7.43;;;;;;;6.57;52.26;102084.09;4973252;28;99232;-79
2021/03/05 07:51:39;;;;;;;11.90;5.55;;;;;;;6.56;52.22;102092.88;4973866;28;101443;-81
2021/03/05 07:54:07;;;;;;;15.52;6.03;;;;;;;6.84;51.60;102096.41;4963481;28;97401;-80
2021/03/05 07:56:44;;;;;;;16.70;6.03;;;;;;;7.08;51.12;102094.69;4974079;28;97840;-80
2021/03/05 07:59:10;;;;;;;12.65;5.53;;;;;;;7.64;50.18;102092.88;4976817;28;98839;-81
2021/03/05 08:01:59;;;;;;;12.43;5.00;;;;;;;7.86;48.90;102103.34;4966286;28;98974;-81
2021/03/05 08:05:03;;;;;;;8.07;4.78;;;;;;;8.43;47.37;102097.88;4974590;28;97469;-79
2021/03/05 08:07:30;;;;;;;15.57;5.38;;;;;;;9.87;44.89;102101.94;4963569;28;96816;-80
2021/03/05 08:09:56;;;;;;;10.98;4.95;;;;;;;9.80;44.26;102100.28;4976643;28;98971;-81
2021/03/05 08:12:42;;;;;;;12.57;7.00;;;;;;;9.47;44.46;102097.09;4976222;28;97750;-79
2021/03/05 08:15:25;;;;;;;8.98;5.30;;;;;;;9.48;43.93;102097.97;4975610;28;97259;-80
2021/03/05 08:17:53;;;;;;;7.80;4.22;;;;;;;9.36;44.53;102108.63;4963442;28;97360;-82
2021/03/05 08:20:52;;;;;;;10.02;5.35;;;;;;;9.10;45.45;102111.50;4975566;28;97750;-80
2021/03/05 08:23:18;;;;;;;13.93;4.60;;;;;;;9.41;44.83;102117.38;4964226;28;101654;-80
2021/03/05 08:25:49;;;;;;;7.70;4.40;;;;;;;9.41;44.27;102123.53;4974966;28;97002;-80
2021/03/05 08:28:45;;;;;;;9.52;4.68;;;;;;;8.79;45.42;102118.75;4978946;28;97679;-80
2021/03/05 08:31:33;;;;;;;11.73;4.97;;;;;;;9.46;44.64;102127.00;4977433;28;99057;-80
2021/03/05 08:34:28;;;;;;;11.88;4.10;;;;;;;8.93;45.53;102127.41;4975761;28;97695;-80
2021/03/05 08:36:58;;;;;;;9.35;3.72;;;;;;;9.35;44.42;102120.06;4969955;28;98939;-80
2021/03/05 08:39:35;;;;;;;9.10;4.13;;;;;;;8.97;44.85;102125.66;4982520;28;98739;-81
2021/03/05 08:42:29;;;;;;;10.52;4.50;;;;;;;9.17;45.22;102124.63;4971042;28;99984;-80
2021/03/05 08:45:10;;;;;;;13.30;4.28;;;;;;;8.25;47.56;102131.28;4967499;28;101489;-79
2021/03/05 08:47:36;;;;;;;14.55;4.95;;;;;;;7.69;48.89;102133.19;4969119;28;96949;-80
2021/03/05 08:50:04;;;;;;;11.38;5.38;;;;;;;7.38;50.23;102140.22;4975142;28;97166;-80
2021/03/05 08:52:32;;;;;;;17.80;6.93;;;;;;;7.52;50.32;102138.47;4974408;28;101201;-79
2021/03/05 08:54:58;;;;;;;13.20;6.03;;;;;;;7.94;49.60;102148.06;4971966;28;98714;-80
2021/03/05 08:57:24;;;;;;;9.77;5.72;;;;;;;9.16;46.67;102154.50;4970751;28;96796;-81
2021/03/05 08:59:51;;;;;;;13.30;6.72;;;;;;;8.83;46.35;102156.50;4960851;28;97983;-81
2021/03/05 09:02:17;;;;;;;10.38;6.60;;;;;;;7.38;49.41;102156.91;4965493;28;99246;-81
2021/03/05 09:04:43;;;;;;;10.88;6.60;;;;;;;7.82;49.81;102158.59;4964025;28;98911;-80
2021/03/05 09:07:12;;;;;;;;;;;;;;;8.32;48.05;102155.88;4973184;28;97435;-79
2021/03/05 09:09:39;;;;;;;12.10;6.45;;;;;;;7.70;49.10;102161.25;4973127;28;97083;-79
2021/03/05 09:12:11;;;;;;;12.45;8.18;;;;;;;8.75;46.73;102167.06;4974762;28;99437;-79
2021/03/05 09:14:38;;;;;;;11.35;6.63;;;;;;;8.72;46.23;102167.09;4972208;28;98374;-79
2021/03/05 09:17:05;;;;;;;13.30;5.90;;;;;;;9.33;44.64;102161.41;4974270;28;97609;-80
2021/03/05 09:19:33;;;;;;;12.32;6.68;;;;;;;9.48;44.23;102177.13;4975217;28;96797;-80
2021/03/05 09:22:07;;;;;;;14.10;6.68;;;;;;;9.74;42.96;102175.13;4972467;28;99132;-81
2021/03/05 09:24:56;;;;;;;11.60;6.63;;;;;;;9.46;43.72;102176.25;4973533;28;98808;-81
2021/03/05 09:27:24;;;;;;;11.95;6.05;;;;;;;10.02;42.72;102169.56;4969486;28;96826;-81
2021/03/05 09:29:55;;;;;;;12.63;6.63;;;;;;;9.38;44.13;102178.97;4989695;28;96929;-79
2021/03/05 09:32:30;;;;;;;19.25;6.65;;;;;;;9.85;43.31;102186.44;4995901;28;98950;-80
2021/03/05 09:34:58;;;;;;;10.75;6.45;;;;;;;9.63;43.58;102187.56;4987841;28;100997;-80
2021/03/05 09:37:26;;;;;;;12.10;6.15;;;;;;;10.12;42.92;102185.28;4982802;28;96778;-80
2021/03/05 09:39:54;;;;;;;12.70;6.32;;;;;;;8.68;46.01;102196.97;4981813;28;97486;-80
2021/03/05 09:42:45;;;;;;;11.55;7.20;;;;;;;7.89;46.97;102210.34;4976922;28;99208;-80
2021/03/05 09:45:12;;;;;;;10.55;6.97;;;;;;;8.06;45.16;102215.59;4976785;28;98976;-80
2021/03/05 09:47:55;;;;;;;11.52;6.30;;;;;;;8.08;44.79;102198.03;4975883;28;97210;-80
2021/03/05 09:50:22;;;;;;;12.25;6.25;;;;;;;8.57;43.79;102207.56;4966919;28;98595;-79
2021/03/05 09:52:49;;;;;;;12.15;7.63;;;;;;;8.96;42.55;102217.03;4975602;28;98883;-79
2021/03/05 09:55:27;;;;;;;14.52;6.43;;;;;;;8.02;44.11;102223.50;4964602;28;99019;-79
2021/03/05 09:57:53;;;;;;;10.43;5.80;;;;;;;7.73;45.04;102219.16;4969909;28;97971;-79
2021/03/05 10:00:29;;;;;;;10.75;5.90;;;;;;;7.88;45.01;102214.72;4977074;28;97536;-79
2021/03/05 10:03:03;;;;;;;7.57;5.53;;;;;;;7.88;44.23;102224.38;4973946;28;99930;-79
2021/03/05 10:05:30;;;;;;;11.82;5.22;;;;;;;8.21;43.56;102221.69;4979890;28;99158;-79
2021/03/05 10:07:56;;;;;;;13.38;5.80;;;;;;;7.75;44.69;102225.25;4991544;28;96878;-80
2021/03/05 10:10:22;;;;;;;10.43;4.80;;;;;;;7.94;44.34;102221.78;4985689;28;97197;-81
2021/03/05 10:12:52;;;;;;;5.57;4.07;;;;;;;7.74;43.51;102234.94;4989016;28;97828;-78
2021/03/05 10:15:19;;;;;;;5.63;3.28;;;;;;;8.10;42.36;102218.22;4988254;28;98521;-80
2021/03/05 10:17:45;;;;;;;5.63;3.47;;;;;;;8.21;40.89;102233.97;4997211;28;96705;-79
2021/03/05 10:20:13;;;;;;;8.70;3.95;;;;;;;8.18;41.81;102242.78;4989259;28;96928;-81
2021/03/05 10:22:39;;;;;;;4.22;2.25;;;;;;;8.72;37.68;102228.59;4985372;28;98092;-79
2021/03/05 10:25:07;;;;;;;7.57;2.28;;;;;;;9.39;36.40;102243.13;4992366;28;98132;-80
2021/03/05 10:27:39;;;;;;;6.20;2.38;;;;;;;10.14;34.06;102232.81;4989715;28;96812;-79
2021/03/05 10:30:08;;;;;;;3.58;1.83;;;;;;;9.70;34.89;102238.53;4977688;28;96797;-79
2021/03/05 10:32:37;;;;;;;3.20;1.90;;;;;;;8.89;36.54;102241.69;4978291;28;97863;-80
2021/03/05 10:35:05;;;;;;;4.57;1.80;;;;;;;9.95;34.51;102240.06;4970802;28;99264;-80
2021/03/05 10:37:32;;;;;;;12.40;2.00;;;;;;;10.30;32.70;102239.75;4980703;28;97744;-81
2021/03/05 10:40:03;;;;;;;2.55;1.58;;;;;;;9.50;34.19;102250.13;4980310;28;96918;-80
2021/03/05 10:42:29;;;;;;;2.47;1.30;;;;;;;9.02;34.88;102251.28;4974528;28;98233;-79
2021/03/05 10:44:59;;;;;;;3.90;1.30;;;;;;;8.69;34.41;102254.94;4975892;28;100067;-80
2021/03/05 10:47:26;;;;;;;5.20;2.08;;;;;;;8.08;36.35;102263.84;4978894;28;96868;-79
2021/03/05 10:49:52;;;;;;;5.28;2.50;;;;;;;7.81;37.21;102256.88;4975404;28;97207;-80
2021/03/05 10:52:19;;;;;;;;;;;;;;;8.00;36.87;102258.63;4973371;28;97492;-79
2021/03/05 10:54:46;;;;;;;3.65;2.20;;;;;;;8.24;35.92;102253.31;4971174;28;97719;-79
2021/03/05 10:57:17;;;;;;;3.70;1.88;;;;;;;7.88;37.21;102255.97;4974325;28;96927;-80
2021/03/05 10:59:44;;;;;;;3.08;2.28;;;;;;;7.80;36.80;102261.25;4973721;28;97335;-80
2021/03/05 11:02:11;;;;;;;4.03;1.90;;;;;;;8.05;36.45;102258.59;4973942;28;98954;-79
2021/03/05 11:04:38;;;;;;;3.15;1.65;;;;;;;7.38;37.79;102255.94;4963380;28;97277;-80
2021/03/05 11:07:04;;;;;;;5.80;2.13;;;;;;;7.58;36.04;102265.63;4964205;28;98100;-78
2021/03/05 11:09:31;;;;;;;3.80;2.17;;;;;;;7.81;34.65;102268.25;4973895;28;98485;-79
2021/03/05 11:11:58;;;;;;;5.63;2.20;;;;;;;7.41;36.45;102261.22;4973453;28;99100;-79
2021/03/05 11:14:24;;;;;;;7.03;2.45;;;;;;;7.59;36.33;102264.75;4970336;28;101431;-81
2021/03/05 11:16:52;;;;;;;8.18;2.28;;;;;;;8.02;35.95;102270.88;4974351;28;99556;-79
2021/03/05 11:19:19;;;;;;;5.90;2.10;;;;;;;8.18;35.52;102273.50;4972922;28;97679;-79
2021/03/05 11:21:46;;;;;;;7.00;2.33;;;;;;;9.00;34.40;102271.50;4968254;28;99236;-79
2021/03/05 11:24:12;;;;;;;2.97;2.00;;;;;;;9.90;32.84;102261.22;4975183;28;99221;-79
2021/03/05 11:26:39;;;;;;;5.55;2.60;;;;;;;9.22;33.66;102260.84;4971467;28;97004;-82
2021/03/05 11:29:05;;;;;;;3.40;1.63;;;;;;;8.90;33.92;102271.56;4975134;28;97202;-79
2021/03/05 11:31:31;;;;;;;5.88;1.95;;;;;;;8.90;33.55;102269.81;4971427;28;96805;-78
2021/03/05 11:33:58;;;;;;;6.00;2.17;;;;;;;8.47;34.92;102262.94;4977497;28;98238;-80
2021/03/05 11:36:23;;;;;;;5.28;2.20;;;;;;;8.67;34.99;102267.25;4979848;28;97275;-79
2021/03/05 11:38:51;;;;;;;6.30;1.65;;;;;;;8.13;35.67;102267.38;4984994;28;97079;-80
2021/03/05 11:41:19;;;;;;;4.00;1.25;;;;;;;8.08;34.12;102269.97;4985230;28;98946;-79